Schedule Details

Flight Number: CPX204
Departure: Liège Airport (EBLG) at 1130 UTC
Arrival: Washington Dulles International Airport (KIAD) at 2000 UTC


Current Weather Information
EBLG 192250Z 20007KT 9999 FEW040 05/01 Q1021 NOSIG
KIAD 192252Z 35004KT 10SM OVC200 03/M13 A3059 RMK AO2 SLP363 T00281133